sensor_id;sensor_type;location;lat;lon;timestamp;P1;durP1;ratioP1;P2;durP2;ratioP2
19554;SDS011;9924;50.828;6.440;2023-04-22T00:01:52;5.32;;;3.75;;
19554;SDS011;9924;50.828;6.440;2023-04-22T00:04:39;7.78;;;3.40;;
19554;SDS011;9924;50.828;6.440;2023-04-22T00:07:28;6.72;;;3.78;;
19554;SDS011;9924;50.828;6.440;2023-04-22T00:10:13;5.43;;;3.42;;
19554;SDS011;9924;50.828;6.440;2023-04-22T00:12:58;3.97;;;2.85;;
19554;SDS011;9924;50.828;6.440;2023-04-22T00:15:42;4.97;;;3.47;;
19554;SDS011;9924;50.828;6.440;2023-04-22T00:18:27;4.05;;;3.00;;
19554;SDS011;9924;50.828;6.440;2023-04-22T00:21:12;6.10;;;3.00;;
19554;SDS011;9924;50.828;6.440;2023-04-22T00:24:00;4.32;;;3.40;;
19554;SDS011;9924;50.828;6.440;2023-04-22T00:26:52;7.57;;;4.95;;
19554;SDS011;9924;50.828;6.440;2023-04-22T00:29:39;6.95;;;3.50;;
19554;SDS011;9924;50.828;6.440;2023-04-22T00:32:26;6.82;;;3.80;;
19554;SDS011;9924;50.828;6.440;2023-04-22T00:35:12;6.45;;;4.10;;
19554;SDS011;9924;50.828;6.440;2023-04-22T00:37:57;5.40;;;4.28;;
19554;SDS011;9924;50.828;6.440;2023-04-22T00:40:43;7.38;;;5.47;;
19554;SDS011;9924;50.828;6.440;2023-04-22T00:43:30;7.35;;;4.72;;
19554;SDS011;9924;50.828;6.440;2023-04-22T00:46:19;8.20;;;5.18;;
19554;SDS011;9924;50.828;6.440;2023-04-22T00:49:05;8.52;;;6.22;;
19554;SDS011;9924;50.828;6.440;2023-04-22T00:51:51;10.52;;;7.53;;
19554;SDS011;9924;50.828;6.440;2023-04-22T00:54:42;10.32;;;6.80;;
19554;SDS011;9924;50.828;6.440;2023-04-22T00:57:28;8.43;;;6.85;;
19554;SDS011;9924;50.828;6.440;2023-04-22T01:00:14;9.88;;;6.15;;
19554;SDS011;9924;50.828;6.440;2023-04-22T01:03:04;9.77;;;6.68;;
19554;SDS011;9924;50.828;6.440;2023-04-22T01:05:50;9.73;;;6.47;;
19554;SDS011;9924;50.828;6.440;2023-04-22T01:08:35;10.13;;;6.07;;
19554;SDS011;9924;50.828;6.440;2023-04-22T01:11:19;9.23;;;6.15;;
19554;SDS011;9924;50.828;6.440;2023-04-22T01:14:05;12.25;;;6.90;;
19554;SDS011;9924;50.828;6.440;2023-04-22T01:16:50;10.77;;;7.10;;
19554;SDS011;9924;50.828;6.440;2023-04-22T01:19:40;9.80;;;7.05;;
19554;SDS011;9924;50.828;6.440;2023-04-22T01:22:26;10.85;;;7.47;;
19554;SDS011;9924;50.828;6.440;2023-04-22T01:25:17;9.48;;;7.00;;
19554;SDS011;9924;50.828;6.440;2023-04-22T01:28:02;9.48;;;6.75;;
19554;SDS011;9924;50.828;6.440;2023-04-22T01:30:59;10.95;;;7.32;;
19554;SDS011;9924;50.828;6.440;2023-04-22T01:33:47;10.07;;;6.80;;
19554;SDS011;9924;50.828;6.440;2023-04-22T01:36:33;9.32;;;6.45;;
19554;SDS011;9924;50.828;6.440;2023-04-22T01:39:18;7.97;;;5.90;;
19554;SDS011;9924;50.828;6.440;2023-04-22T01:42:03;8.52;;;5.88;;
19554;SDS011;9924;50.828;6.440;2023-04-22T01:44:48;9.38;;;6.10;;
19554;SDS011;9924;50.828;6.440;2023-04-22T01:47:34;9.23;;;6.32;;
19554;SDS011;9924;50.828;6.440;2023-04-22T01:50:22;9.18;;;6.82;;
19554;SDS011;9924;50.828;6.440;2023-04-22T01:53:07;10.07;;;6.60;;
19554;SDS011;9924;50.828;6.440;2023-04-22T01:56:00;9.60;;;6.35;;
19554;SDS011;9924;50.828;6.440;2023-04-22T01:58:48;8.85;;;6.57;;
19554;SDS011;9924;50.828;6.440;2023-04-22T02:01:32;9.05;;;5.93;;
19554;SDS011;9924;50.828;6.440;2023-04-22T02:04:17;10.68;;;6.18;;
19554;SDS011;9924;50.828;6.440;2023-04-22T02:07:01;12.45;;;6.60;;
19554;SDS011;9924;50.828;6.440;2023-04-22T02:09:46;10.32;;;6.80;;
19554;SDS011;9924;50.828;6.440;2023-04-22T02:12:30;8.77;;;6.43;;
19554;SDS011;9924;50.828;6.440;2023-04-22T02:15:19;8.13;;;6.05;;
19554;SDS011;9924;50.828;6.440;2023-04-22T02:18:04;10.63;;;6.25;;
19554;SDS011;9924;50.828;6.440;2023-04-22T02:20:51;9.57;;;5.88;;
19554;SDS011;9924;50.828;6.440;2023-04-22T02:23:36;11.07;;;6.00;;
19554;SDS011;9924;50.828;6.440;2023-04-22T02:26:23;9.98;;;6.45;;
19554;SDS011;9924;50.828;6.440;2023-04-22T02:29:08;10.00;;;6.32;;
19554;SDS011;9924;50.828;6.440;2023-04-22T02:31:58;13.02;;;6.95;;
19554;SDS011;9924;50.828;6.440;2023-04-22T02:34:44;10.27;;;7.50;;
19554;SDS011;9924;50.828;6.440;2023-04-22T02:37:33;11.82;;;8.00;;
19554;SDS011;9924;50.828;6.440;2023-04-22T02:40:28;12.93;;;7.30;;
19554;SDS011;9924;50.828;6.440;2023-04-22T02:43:17;12.85;;;7.45;;
19554;SDS011;9924;50.828;6.440;2023-04-22T02:46:12;14.88;;;7.20;;
19554;SDS011;9924;50.828;6.440;2023-04-22T02:48:59;9.73;;;6.40;;
19554;SDS011;9924;50.828;6.440;2023-04-22T02:51:51;10.98;;;6.78;;
19554;SDS011;9924;50.828;6.440;2023-04-22T02:54:36;10.43;;;6.57;;
19554;SDS011;9924;50.828;6.440;2023-04-22T02:57:21;8.95;;;6.05;;
19554;SDS011;9924;50.828;6.440;2023-04-22T03:00:10;9.75;;;6.88;;
19554;SDS011;9924;50.828;6.440;2023-04-22T03:03:01;7.57;;;5.60;;
19554;SDS011;9924;50.828;6.440;2023-04-22T03:05:46;9.35;;;6.18;;
19554;SDS011;9924;50.828;6.440;2023-04-22T03:08:35;7.93;;;5.75;;
19554;SDS011;9924;50.828;6.440;2023-04-22T03:11:20;12.02;;;6.68;;
19554;SDS011;9924;50.828;6.440;2023-04-22T03:14:04;9.32;;;6.38;;
19554;SDS011;9924;50.828;6.440;2023-04-22T03:16:50;9.15;;;6.22;;
19554;SDS011;9924;50.828;6.440;2023-04-22T03:19:34;9.70;;;6.60;;
19554;SDS011;9924;50.828;6.440;2023-04-22T03:22:19;8.70;;;5.80;;
19554;SDS011;9924;50.828;6.440;2023-04-22T03:25:07;9.85;;;6.15;;
19554;SDS011;9924;50.828;6.440;2023-04-22T03:27:56;8.80;;;5.80;;
19554;SDS011;9924;50.828;6.440;2023-04-22T03:30:45;7.88;;;5.57;;
19554;SDS011;9924;50.828;6.440;2023-04-22T03:33:31;8.43;;;5.55;;
19554;SDS011;9924;50.828;6.440;2023-04-22T03:36:16;7.07;;;4.63;;
19554;SDS011;9924;50.828;6.440;2023-04-22T03:39:01;8.27;;;5.25;;
19554;SDS011;9924;50.828;6.440;2023-04-22T03:41:54;7.97;;;5.20;;
19554;SDS011;9924;50.828;6.440;2023-04-22T03:44:44;8.25;;;5.18;;
19554;SDS011;9924;50.828;6.440;2023-04-22T03:47:29;14.98;;;6.00;;
19554;SDS011;9924;50.828;6.440;2023-04-22T03:50:14;7.07;;;5.28;;
19554;SDS011;9924;50.828;6.440;2023-04-22T03:52:58;10.40;;;6.40;;
19554;SDS011;9924;50.828;6.440;2023-04-22T03:55:46;9.82;;;6.63;;
19554;SDS011;9924;50.828;6.440;2023-04-22T03:58:31;11.00;;;6.25;;
19554;SDS011;9924;50.828;6.440;2023-04-22T04:01:16;7.68;;;6.13;;
19554;SDS011;9924;50.828;6.440;2023-04-22T04:04:09;8.32;;;5.70;;
19554;SDS011;9924;50.828;6.440;2023-04-22T04:06:54;8.30;;;5.30;;
19554;SDS011;9924;50.828;6.440;2023-04-22T04:09:40;9.10;;;5.47;;
19554;SDS011;9924;50.828;6.440;2023-04-22T04:12:24;8.82;;;5.78;;
19554;SDS011;9924;50.828;6.440;2023-04-22T04:15:09;8.80;;;5.90;;
19554;SDS011;9924;50.828;6.440;2023-04-22T04:17:54;13.23;;;6.47;;
19554;SDS011;9924;50.828;6.440;2023-04-22T04:20:39;9.13;;;6.15;;
19554;SDS011;9924;50.828;6.440;2023-04-22T04:23:28;10.38;;;7.30;;
19554;SDS011;9924;50.828;6.440;2023-04-22T04:26:19;11.40;;;7.93;;
19554;SDS011;9924;50.828;6.440;2023-04-22T04:29:04;11.68;;;8.32;;
19554;SDS011;9924;50.828;6.440;2023-04-22T04:31:56;14.13;;;9.32;;
19554;SDS011;9924;50.828;6.440;2023-04-22T04:34:42;12.63;;;8.50;;
19554;SDS011;9924;50.828;6.440;2023-04-22T04:37:28;14.20;;;9.63;;
19554;SDS011;9924;50.828;6.440;2023-04-22T04:40:14;14.18;;;9.73;;
19554;SDS011;9924;50.828;6.440;2023-04-22T04:43:14;14.88;;;10.10;;
19554;SDS011;9924;50.828;6.440;2023-04-22T04:46:02;13.32;;;9.20;;
19554;SDS011;9924;50.828;6.440;2023-04-22T04:48:48;15.75;;;9.95;;
19554;SDS011;9924;50.828;6.440;2023-04-22T04:51:34;14.68;;;9.80;;
19554;SDS011;9924;50.828;6.440;2023-04-22T04:54:20;14.07;;;9.27;;
19554;SDS011;9924;50.828;6.440;2023-04-22T04:57:05;13.82;;;8.50;;
19554;SDS011;9924;50.828;6.440;2023-04-22T04:59:50;15.68;;;9.05;;
19554;SDS011;9924;50.828;6.440;2023-04-22T05:02:35;13.90;;;9.38;;
19554;SDS011;9924;50.828;6.440;2023-04-22T05:05:20;14.35;;;9.60;;
19554;SDS011;9924;50.828;6.440;2023-04-22T05:08:04;13.57;;;8.95;;
19554;SDS011;9924;50.828;6.440;2023-04-22T05:10:52;12.95;;;8.93;;
19554;SDS011;9924;50.828;6.440;2023-04-22T05:13:40;13.98;;;8.85;;
19554;SDS011;9924;50.828;6.440;2023-04-22T05:16:31;13.40;;;8.27;;
19554;SDS011;9924;50.828;6.440;2023-04-22T05:19:16;12.23;;;7.78;;
19554;SDS011;9924;50.828;6.440;2023-04-22T05:22:09;11.35;;;7.63;;
19554;SDS011;9924;50.828;6.440;2023-04-22T05:24:53;12.55;;;7.35;;
19554;SDS011;9924;50.828;6.440;2023-04-22T05:27:42;10.50;;;7.38;;
19554;SDS011;9924;50.828;6.440;2023-04-22T05:30:27;11.63;;;7.30;;
19554;SDS011;9924;50.828;6.440;2023-04-22T05:33:17;11.10;;;7.20;;
19554;SDS011;9924;50.828;6.440;2023-04-22T05:36:06;9.45;;;7.15;;
19554;SDS011;9924;50.828;6.440;2023-04-22T05:38:51;9.68;;;7.05;;
19554;SDS011;9924;50.828;6.440;2023-04-22T05:41:39;9.05;;;6.15;;
19554;SDS011;9924;50.828;6.440;2023-04-22T05:44:27;9.90;;;6.47;;
19554;SDS011;9924;50.828;6.440;2023-04-22T05:47:12;9.60;;;5.40;;
19554;SDS011;9924;50.828;6.440;2023-04-22T05:50:02;7.43;;;5.10;;
19554;SDS011;9924;50.828;6.440;2023-04-22T05:52:51;8.98;;;5.95;;
19554;SDS011;9924;50.828;6.440;2023-04-22T05:55:39;7.20;;;5.13;;
19554;SDS011;9924;50.828;6.440;2023-04-22T05:58:26;8.88;;;4.40;;
19554;SDS011;9924;50.828;6.440;2023-04-22T06:01:10;12.10;;;4.95;;
19554;SDS011;9924;50.828;6.440;2023-04-22T06:04:05;5.47;;;3.90;;
19554;SDS011;9924;50.828;6.440;2023-04-22T06:06:52;9.20;;;3.92;;
19554;SDS011;9924;50.828;6.440;2023-04-22T06:09:37;5.57;;;3.15;;
19554;SDS011;9924;50.828;6.440;2023-04-22T06:12:44;5.82;;;2.80;;
19554;SDS011;9924;50.828;6.440;2023-04-22T06:15:33;5.72;;;2.70;;
19554;SDS011;9924;50.828;6.440;2023-04-22T06:18:18;3.85;;;2.70;;
19554;SDS011;9924;50.828;6.440;2023-04-22T06:21:03;3.97;;;2.70;;
19554;SDS011;9924;50.828;6.440;2023-04-22T06:23:49;4.75;;;4.03;;
19554;SDS011;9924;50.828;6.440;2023-04-22T06:26:36;4.13;;;2.95;;
19554;SDS011;9924;50.828;6.440;2023-04-22T06:29:23;2.83;;;2.33;;
19554;SDS011;9924;50.828;6.440;2023-04-22T06:32:08;4.47;;;2.50;;
19554;SDS011;9924;50.828;6.440;2023-04-22T06:34:53;5.30;;;3.38;;
19554;SDS011;9924;50.828;6.440;2023-04-22T06:37:41;9.07;;;4.55;;
19554;SDS011;9924;50.828;6.440;2023-04-22T06:40:25;4.80;;;2.75;;
19554;SDS011;9924;50.828;6.440;2023-04-22T06:43:13;4.60;;;2.35;;
19554;SDS011;9924;50.828;6.440;2023-04-22T06:45:59;3.72;;;2.40;;
19554;SDS011;9924;50.828;6.440;2023-04-22T06:48:44;3.88;;;2.35;;
19554;SDS011;9924;50.828;6.440;2023-04-22T06:51:29;4.57;;;2.63;;
19554;SDS011;9924;50.828;6.440;2023-04-22T06:54:15;5.55;;;2.42;;
19554;SDS011;9924;50.828;6.440;2023-04-22T06:57:00;4.50;;;2.70;;
19554;SDS011;9924;50.828;6.440;2023-04-22T06:59:51;6.30;;;2.42;;
19554;SDS011;9924;50.828;6.440;2023-04-22T07:02:48;4.35;;;2.53;;
19554;SDS011;9924;50.828;6.440;2023-04-22T07:05:36;4.70;;;2.60;;
19554;SDS011;9924;50.828;6.440;2023-04-22T07:08:20;5.40;;;2.30;;
19554;SDS011;9924;50.828;6.440;2023-04-22T07:11:12;3.50;;;2.17;;
19554;SDS011;9924;50.828;6.440;2023-04-22T07:13:59;3.95;;;2.00;;
19554;SDS011;9924;50.828;6.440;2023-04-22T07:16:45;4.63;;;2.25;;
19554;SDS011;9924;50.828;6.440;2023-04-22T07:19:43;3.28;;;2.03;;
19554;SDS011;9924;50.828;6.440;2023-04-22T07:22:37;4.43;;;2.35;;
19554;SDS011;9924;50.828;6.440;2023-04-22T07:25:24;3.67;;;2.25;;
19554;SDS011;9924;50.828;6.440;2023-04-22T07:28:10;4.35;;;2.30;;
19554;SDS011;9924;50.828;6.440;2023-04-22T07:31:01;3.78;;;2.13;;
19554;SDS011;9924;50.828;6.440;2023-04-22T07:33:45;2.30;;;2.03;;
19554;SDS011;9924;50.828;6.440;2023-04-22T07:36:30;2.70;;;2.00;;
19554;SDS011;9924;50.828;6.440;2023-04-22T07:39:15;5.20;;;2.67;;
19554;SDS011;9924;50.828;6.440;2023-04-22T07:42:03;3.25;;;2.17;;
19554;SDS011;9924;50.828;6.440;2023-04-22T07:44:50;4.82;;;2.38;;
19554;SDS011;9924;50.828;6.440;2023-04-22T07:47:34;4.40;;;2.30;;
19554;SDS011;9924;50.828;6.440;2023-04-22T07:50:24;4.70;;;2.33;;
19554;SDS011;9924;50.828;6.440;2023-04-22T07:53:08;2.47;;;1.80;;
19554;SDS011;9924;50.828;6.440;2023-04-22T07:55:54;2.78;;;2.03;;
19554;SDS011;9924;50.828;6.440;2023-04-22T07:58:39;3.05;;;2.08;;
19554;SDS011;9924;50.828;6.440;2023-04-22T08:01:25;2.92;;;1.80;;
19554;SDS011;9924;50.828;6.440;2023-04-22T08:04:11;2.17;;;1.98;;
19554;SDS011;9924;50.828;6.440;2023-04-22T08:07:00;4.40;;;2.10;;
19554;SDS011;9924;50.828;6.440;2023-04-22T08:09:55;3.22;;;2.30;;
19554;SDS011;9924;50.828;6.440;2023-04-22T08:12:49;3.97;;;1.83;;
19554;SDS011;9924;50.828;6.440;2023-04-22T08:15:36;3.30;;;2.10;;
19554;SDS011;9924;50.828;6.440;2023-04-22T08:18:21;4.35;;;2.25;;
19554;SDS011;9924;50.828;6.440;2023-04-22T08:21:09;2.05;;;1.63;;
19554;SDS011;9924;50.828;6.440;2023-04-22T08:23:55;3.28;;;1.88;;
19554;SDS011;9924;50.828;6.440;2023-04-22T08:29:49;5.70;;;1.95;;
19554;SDS011;9924;50.828;6.440;2023-04-22T08:32:35;3.25;;;1.98;;
19554;SDS011;9924;50.828;6.440;2023-04-22T08:35:21;4.63;;;1.90;;
19554;SDS011;9924;50.828;6.440;2023-04-22T08:38:05;2.65;;;1.80;;
19554;SDS011;9924;50.828;6.440;2023-04-22T08:40:50;2.55;;;1.80;;
19554;SDS011;9924;50.828;6.440;2023-04-22T08:43:42;3.40;;;1.75;;
19554;SDS011;9924;50.828;6.440;2023-04-22T08:46:39;3.75;;;1.90;;
19554;SDS011;9924;50.828;6.440;2023-04-22T08:49:38;3.50;;;2.08;;
19554;SDS011;9924;50.828;6.440;2023-04-22T08:52:29;3.92;;;1.80;;
19554;SDS011;9924;50.828;6.440;2023-04-22T08:55:16;3.25;;;1.85;;
19554;SDS011;9924;50.828;6.440;2023-04-22T08:58:02;3.97;;;2.30;;
19554;SDS011;9924;50.828;6.440;2023-04-22T09:00:48;3.40;;;1.90;;
19554;SDS011;9924;50.828;6.440;2023-04-22T09:03:40;3.28;;;1.88;;
19554;SDS011;9924;50.828;6.440;2023-04-22T09:06:27;6.10;;;2.00;;
19554;SDS011;9924;50.828;6.440;2023-04-22T09:09:16;3.80;;;2.05;;
19554;SDS011;9924;50.828;6.440;2023-04-22T09:12:05;4.18;;;1.92;;
19554;SDS011;9924;50.828;6.440;2023-04-22T09:14:51;3.40;;;1.95;;
19554;SDS011;9924;50.828;6.440;2023-04-22T09:17:37;5.38;;;2.00;;
19554;SDS011;9924;50.828;6.440;2023-04-22T09:20:27;4.00;;;2.08;;
19554;SDS011;9924;50.828;6.440;2023-04-22T09:23:16;2.95;;;1.77;;
19554;SDS011;9924;50.828;6.440;2023-04-22T09:26:08;4.32;;;1.88;;
19554;SDS011;9924;50.828;6.440;2023-04-22T09:28:58;4.63;;;2.33;;
19554;SDS011;9924;50.828;6.440;2023-04-22T09:31:47;2.97;;;1.98;;
19554;SDS011;9924;50.828;6.440;2023-04-22T09:34:33;5.03;;;1.80;;
19554;SDS011;9924;50.828;6.440;2023-04-22T09:37:27;3.20;;;2.05;;
19554;SDS011;9924;50.828;6.440;2023-04-22T09:40:14;3.85;;;2.22;;
19554;SDS011;9924;50.828;6.440;2023-04-22T09:43:01;2.50;;;1.92;;
19554;SDS011;9924;50.828;6.440;2023-04-22T09:45:47;2.50;;;1.67;;
19554;SDS011;9924;50.828;6.440;2023-04-22T09:48:32;2.60;;;1.95;;
19554;SDS011;9924;50.828;6.440;2023-04-22T09:51:25;3.13;;;2.30;;
19554;SDS011;9924;50.828;6.440;2023-04-22T09:54:11;5.90;;;2.40;;
19554;SDS011;9924;50.828;6.440;2023-04-22T09:56:56;5.28;;;2.42;;
19554;SDS011;9924;50.828;6.440;2023-04-22T09:59:45;4.70;;;2.60;;
19554;SDS011;9924;50.828;6.440;2023-04-22T10:02:32;6.10;;;2.67;;
19554;SDS011;9924;50.828;6.440;2023-04-22T10:05:16;3.75;;;2.40;;
19554;SDS011;9924;50.828;6.440;2023-04-22T10:08:01;4.95;;;2.35;;
19554;SDS011;9924;50.828;6.440;2023-04-22T10:10:49;4.60;;;2.70;;
19554;SDS011;9924;50.828;6.440;2023-04-22T10:13:36;4.15;;;2.42;;
19554;SDS011;9924;50.828;6.440;2023-04-22T10:16:22;3.42;;;2.20;;
19554;SDS011;9924;50.828;6.440;2023-04-22T10:19:09;4.05;;;2.65;;
19554;SDS011;9924;50.828;6.440;2023-04-22T10:21:58;4.55;;;2.60;;
19554;SDS011;9924;50.828;6.440;2023-04-22T10:24:46;3.58;;;2.45;;
19554;SDS011;9924;50.828;6.440;2023-04-22T10:27:33;3.70;;;2.40;;
19554;SDS011;9924;50.828;6.440;2023-04-22T10:30:25;5.75;;;2.47;;
19554;SDS011;9924;50.828;6.440;2023-04-22T10:42:06;4.70;;;2.30;;
19554;SDS011;9924;50.828;6.440;2023-04-22T10:44:53;2.75;;;2.00;;
19554;SDS011;9924;50.828;6.440;2023-04-22T10:47:44;4.40;;;2.22;;
19554;SDS011;9924;50.828;6.440;2023-04-22T10:50:30;3.10;;;2.10;;
19554;SDS011;9924;50.828;6.440;2023-04-22T10:53:34;3.70;;;2.05;;
19554;SDS011;9924;50.828;6.440;2023-04-22T10:56:20;2.75;;;1.73;;
19554;SDS011;9924;50.828;6.440;2023-04-22T10:59:14;4.25;;;2.00;;
19554;SDS011;9924;50.828;6.440;2023-04-22T11:02:10;6.70;;;2.30;;
19554;SDS011;9924;50.828;6.440;2023-04-22T11:08:17;3.63;;;2.30;;
19554;SDS011;9924;50.828;6.440;2023-04-22T11:11:09;6.03;;;2.85;;
19554;SDS011;9924;50.828;6.440;2023-04-22T11:13:56;4.35;;;2.60;;
19554;SDS011;9924;50.828;6.440;2023-04-22T11:16:44;3.38;;;2.05;;
19554;SDS011;9924;50.828;6.440;2023-04-22T11:19:30;6.18;;;2.38;;
19554;SDS011;9924;50.828;6.440;2023-04-22T11:22:17;5.85;;;2.70;;
19554;SDS011;9924;50.828;6.440;2023-04-22T11:25:03;7.68;;;2.30;;
19554;SDS011;9924;50.828;6.440;2023-04-22T11:27:52;5.85;;;2.17;;
19554;SDS011;9924;50.828;6.440;2023-04-22T11:30:37;5.07;;;2.40;;
19554;SDS011;9924;50.828;6.440;2023-04-22T11:33:22;4.68;;;2.22;;
19554;SDS011;9924;50.828;6.440;2023-04-22T11:36:10;5.78;;;2.33;;
19554;SDS011;9924;50.828;6.440;2023-04-22T11:38:55;4.60;;;2.33;;
19554;SDS011;9924;50.828;6.440;2023-04-22T11:41:40;6.07;;;2.67;;
19554;SDS011;9924;50.828;6.440;2023-04-22T11:44:25;5.80;;;2.30;;
19554;SDS011;9924;50.828;6.440;2023-04-22T11:47:09;3.17;;;2.08;;
19554;SDS011;9924;50.828;6.440;2023-04-22T11:49:59;3.28;;;2.25;;
19554;SDS011;9924;50.828;6.440;2023-04-22T11:53:20;5.85;;;2.28;;
19554;SDS011;9924;50.828;6.440;2023-04-22T11:56:09;5.35;;;2.38;;
19554;SDS011;9924;50.828;6.440;2023-04-22T11:58:55;2.92;;;2.10;;
19554;SDS011;9924;50.828;6.440;2023-04-22T12:01:40;4.82;;;2.10;;
19554;SDS011;9924;50.828;6.440;2023-04-22T12:04:25;5.22;;;1.83;;
19554;SDS011;9924;50.828;6.440;2023-04-22T12:07:09;5.22;;;1.95;;
19554;SDS011;9924;50.828;6.440;2023-04-22T12:09:54;2.47;;;1.48;;
19554;SDS011;9924;50.828;6.440;2023-04-22T12:12:40;3.35;;;1.77;;
19554;SDS011;9924;50.828;6.440;2023-04-22T12:15:35;2.17;;;1.58;;
19554;SDS011;9924;50.828;6.440;2023-04-22T12:18:32;4.22;;;1.80;;
19554;SDS011;9924;50.828;6.440;2023-04-22T12:21:20;3.13;;;2.15;;
19554;SDS011;9924;50.828;6.440;2023-04-22T12:24:11;5.93;;;2.20;;
19554;SDS011;9924;50.828;6.440;2023-04-22T12:26:59;2.88;;;2.00;;
19554;SDS011;9924;50.828;6.440;2023-04-22T12:29:54;2.97;;;1.75;;
19554;SDS011;9924;50.828;6.440;2023-04-22T12:32:40;3.70;;;1.85;;
19554;SDS011;9924;50.828;6.440;2023-04-22T12:35:25;3.42;;;1.80;;
19554;SDS011;9924;50.828;6.440;2023-04-22T12:38:09;4.00;;;2.00;;
19554;SDS011;9924;50.828;6.440;2023-04-22T12:40:54;3.85;;;1.80;;
19554;SDS011;9924;50.828;6.440;2023-04-22T12:43:39;3.63;;;1.88;;
19554;SDS011;9924;50.828;6.440;2023-04-22T12:46:23;3.75;;;1.98;;
19554;SDS011;9924;50.828;6.440;2023-04-22T12:49:09;3.30;;;1.70;;
19554;SDS011;9924;50.828;6.440;2023-04-22T12:51:54;3.63;;;1.85;;
19554;SDS011;9924;50.828;6.440;2023-04-22T12:54:40;4.78;;;1.70;;
19554;SDS011;9924;50.828;6.440;2023-04-22T12:57:27;2.70;;;1.75;;
19554;SDS011;9924;50.828;6.440;2023-04-22T13:00:13;3.45;;;1.92;;
19554;SDS011;9924;50.828;6.440;2023-04-22T13:02:59;2.55;;;1.63;;
19554;SDS011;9924;50.828;6.440;2023-04-22T13:05:50;2.30;;;1.63;;
19554;SDS011;9924;50.828;6.440;2023-04-22T13:08:37;2.58;;;1.42;;
19554;SDS011;9924;50.828;6.440;2023-04-22T13:11:24;2.50;;;1.42;;
19554;SDS011;9924;50.828;6.440;2023-04-22T13:14:08;1.60;;;1.10;;
19554;SDS011;9924;50.828;6.440;2023-04-22T13:16:53;2.50;;;1.20;;
19554;SDS011;9924;50.828;6.440;2023-04-22T13:19:37;2.45;;;1.10;;
19554;SDS011;9924;50.828;6.440;2023-04-22T13:22:23;1.30;;;1.15;;
19554;SDS011;9924;50.828;6.440;2023-04-22T13:25:08;1.98;;;1.40;;
19554;SDS011;9924;50.828;6.440;2023-04-22T13:27:52;1.10;;;1.00;;
19554;SDS011;9924;50.828;6.440;2023-04-22T13:30:37;1.77;;;0.98;;
19554;SDS011;9924;50.828;6.440;2023-04-22T13:33:24;1.33;;;1.00;;
19554;SDS011;9924;50.828;6.440;2023-04-22T13:36:10;2.50;;;0.93;;
19554;SDS011;9924;50.828;6.440;2023-04-22T13:38:55;2.63;;;1.10;;
19554;SDS011;9924;50.828;6.440;2023-04-22T13:41:40;1.40;;;1.00;;
19554;SDS011;9924;50.828;6.440;2023-04-22T13:44:25;1.85;;;1.00;;
19554;SDS011;9924;50.828;6.440;2023-04-22T13:47:10;2.15;;;1.05;;
19554;SDS011;9924;50.828;6.440;2023-04-22T13:49:56;2.80;;;1.10;;
19554;SDS011;9924;50.828;6.440;2023-04-22T13:52:40;1.08;;;0.80;;
19554;SDS011;9924;50.828;6.440;2023-04-22T13:55:25;0.82;;;0.70;;
19554;SDS011;9924;50.828;6.440;2023-04-22T13:58:13;1.60;;;0.80;;
19554;SDS011;9924;50.828;6.440;2023-04-22T14:00:59;1.63;;;0.70;;
19554;SDS011;9924;50.828;6.440;2023-04-22T14:03:45;0.80;;;0.55;;
19554;SDS011;9924;50.828;6.440;2023-04-22T14:06:30;2.13;;;0.65;;
19554;SDS011;9924;50.828;6.440;2023-04-22T14:09:15;1.33;;;0.65;;
19554;SDS011;9924;50.828;6.440;2023-04-22T14:12:01;1.60;;;0.60;;
19554;SDS011;9924;50.828;6.440;2023-04-22T14:14:47;1.20;;;0.80;;
19554;SDS011;9924;50.828;6.440;2023-04-22T14:17:32;1.85;;;0.63;;
19554;SDS011;9924;50.828;6.440;2023-04-22T14:20:17;1.38;;;0.80;;
19554;SDS011;9924;50.828;6.440;2023-04-22T14:23:02;0.82;;;0.63;;
19554;SDS011;9924;50.828;6.440;2023-04-22T14:25:47;0.70;;;0.70;;
19554;SDS011;9924;50.828;6.440;2023-04-22T14:28:32;0.77;;;0.65;;
19554;SDS011;9924;50.828;6.440;2023-04-22T14:31:23;2.70;;;0.70;;
19554;SDS011;9924;50.828;6.440;2023-04-22T14:34:08;1.55;;;0.80;;
19554;SDS011;9924;50.828;6.440;2023-04-22T14:36:53;0.90;;;0.70;;
19554;SDS011;9924;50.828;6.440;2023-04-22T14:39:38;2.42;;;1.05;;
19554;SDS011;9924;50.828;6.440;2023-04-22T14:42:32;0.90;;;0.80;;
19554;SDS011;9924;50.828;6.440;2023-04-22T14:45:17;1.52;;;0.82;;
19554;SDS011;9924;50.828;6.440;2023-04-22T14:48:05;0.93;;;0.70;;
19554;SDS011;9924;50.828;6.440;2023-04-22T14:50:51;1.25;;;0.75;;
19554;SDS011;9924;50.828;6.440;2023-04-22T14:53:35;2.63;;;1.10;;
19554;SDS011;9924;50.828;6.440;2023-04-22T14:56:23;0.82;;;0.80;;
19554;SDS011;9924;50.828;6.440;2023-04-22T14:59:08;1.67;;;0.77;;
19554;SDS011;9924;50.828;6.440;2023-04-22T15:02:01;1.02;;;0.60;;
19554;SDS011;9924;50.828;6.440;2023-04-22T15:04:49;1.42;;;0.70;;
19554;SDS011;9924;50.828;6.440;2023-04-22T15:07:34;0.77;;;0.73;;
19554;SDS011;9924;50.828;6.440;2023-04-22T15:10:19;1.67;;;0.98;;
19554;SDS011;9924;50.828;6.440;2023-04-22T15:13:04;1.40;;;0.80;;
19554;SDS011;9924;50.828;6.440;2023-04-22T15:15:49;1.85;;;0.50;;
19554;SDS011;9924;50.828;6.440;2023-04-22T15:18:41;0.90;;;0.65;;
19554;SDS011;9924;50.828;6.440;2023-04-22T15:21:31;0.50;;;0.50;;
19554;SDS011;9924;50.828;6.440;2023-04-22T15:24:17;0.90;;;0.70;;
19554;SDS011;9924;50.828;6.440;2023-04-22T15:27:15;3.17;;;1.00;;
19554;SDS011;9924;50.828;6.440;2023-04-22T15:29:59;1.73;;;0.73;;
19554;SDS011;9924;50.828;6.440;2023-04-22T15:32:47;2.50;;;1.20;;
19554;SDS011;9924;50.828;6.440;2023-04-22T15:35:31;1.38;;;1.17;;
19554;SDS011;9924;50.828;6.440;2023-04-22T15:38:16;4.00;;;1.33;;
19554;SDS011;9924;50.828;6.440;2023-04-22T15:41:01;3.83;;;0.98;;
19554;SDS011;9924;50.828;6.440;2023-04-22T15:43:46;2.72;;;1.17;;
19554;SDS011;9924;50.828;6.440;2023-04-22T15:46:33;1.90;;;1.13;;
19554;SDS011;9924;50.828;6.440;2023-04-22T15:49:18;2.15;;;1.05;;
19554;SDS011;9924;50.828;6.440;2023-04-22T15:52:04;2.38;;;1.33;;
19554;SDS011;9924;50.828;6.440;2023-04-22T15:54:49;1.40;;;0.93;;
19554;SDS011;9924;50.828;6.440;2023-04-22T15:57:34;2.50;;;1.13;;
19554;SDS011;9924;50.828;6.440;2023-04-22T16:00:20;2.00;;;1.27;;
19554;SDS011;9924;50.828;6.440;2023-04-22T16:03:07;3.00;;;1.35;;
19554;SDS011;9924;50.828;6.440;2023-04-22T16:05:51;4.18;;;1.55;;
19554;SDS011;9924;50.828;6.440;2023-04-22T16:08:36;2.63;;;1.35;;
19554;SDS011;9924;50.828;6.440;2023-04-22T16:11:26;1.88;;;1.20;;
19554;SDS011;9924;50.828;6.440;2023-04-22T16:14:11;2.70;;;1.30;;
19554;SDS011;9924;50.828;6.440;2023-04-22T16:16:59;1.95;;;1.30;;
19554;SDS011;9924;50.828;6.440;2023-04-22T16:19:45;2.22;;;1.33;;
19554;SDS011;9924;50.828;6.440;2023-04-22T16:22:31;1.83;;;1.35;;
19554;SDS011;9924;50.828;6.440;2023-04-22T16:25:21;2.40;;;1.48;;
19554;SDS011;9924;50.828;6.440;2023-04-22T16:28:10;2.95;;;1.83;;
19554;SDS011;9924;50.828;6.440;2023-04-22T16:31:00;3.35;;;1.60;;
19554;SDS011;9924;50.828;6.440;2023-04-22T16:33:45;2.95;;;1.67;;
19554;SDS011;9924;50.828;6.440;2023-04-22T16:36:31;3.17;;;1.85;;
19554;SDS011;9924;50.828;6.440;2023-04-22T16:39:16;1.65;;;1.40;;
19554;SDS011;9924;50.828;6.440;2023-04-22T16:42:01;1.52;;;1.30;;
19554;SDS011;9924;50.828;6.440;2023-04-22T16:44:46;3.40;;;1.70;;
19554;SDS011;9924;50.828;6.440;2023-04-22T16:47:35;2.78;;;1.83;;
19554;SDS011;9924;50.828;6.440;2023-04-22T16:50:22;2.50;;;1.35;;
19554;SDS011;9924;50.828;6.440;2023-04-22T16:53:08;2.30;;;1.73;;
19554;SDS011;9924;50.828;6.440;2023-04-22T16:55:54;2.70;;;1.65;;
19554;SDS011;9924;50.828;6.440;2023-04-22T16:58:39;2.97;;;2.00;;
19554;SDS011;9924;50.828;6.440;2023-04-22T17:01:24;2.63;;;1.90;;
19554;SDS011;9924;50.828;6.440;2023-04-22T17:04:10;2.78;;;1.67;;
19554;SDS011;9924;50.828;6.440;2023-04-22T17:06:55;1.92;;;1.67;;
19554;SDS011;9924;50.828;6.440;2023-04-22T17:09:43;3.70;;;1.85;;
19554;SDS011;9924;50.828;6.440;2023-04-22T17:12:28;2.75;;;1.90;;
19554;SDS011;9924;50.828;6.440;2023-04-22T17:15:14;2.60;;;1.90;;
19554;SDS011;9924;50.828;6.440;2023-04-22T17:17:59;3.83;;;1.70;;